Time;durP1;ratioP1;P1;durP2;ratioP2;P2;SDS_P1;SDS_P2;PMS_P1;PMS_P2;Temp;Humidity;BMP_temperature;BMP_pressure;BME280_temperature;BME280_humidity;BME280_pressure;Samples;Min_cycle;Max_cycle;Signal;HPM_P1;HPM_P2
2021/08/06 00:09:38;;;;;;;2.08;0.98;;;;;;;16.78;85.18;99529.28;20903858;28;20467;-70
2021/08/06 00:19:40;;;;;;;4.18;1.33;;;;;;;16.59;86.23;99515.31;20905120;28;20056;-70
2021/08/06 00:29:42;;;;;;;3.30;1.20;;;;;;;16.44;86.34;99514.38;20904270;28;20408;-70
2021/08/06 00:39:43;;;;;;;5.32;1.40;;;;;;;16.36;85.74;99512.13;20902656;28;20048;-70
2021/08/06 00:49:45;;;;;;;5.43;1.50;;;;;;;16.21;86.86;99498.91;20903244;28;20048;-70
2021/08/06 00:59:47;;;;;;;3.08;1.40;;;;;;;16.21;87.02;99498.91;20902041;28;20045;-70
2021/08/06 01:09:54;;;;;;;2.97;1.20;;;;;;;16.23;87.01;99494.38;20897871;28;20106;-69
2021/08/06 01:20:01;;;;;;;2.45;1.30;;;;;;;16.22;86.62;99487.38;20901020;28;20045;-70
2021/08/06 01:30:08;;;;;;;4.10;1.40;;;;;;;16.19;86.35;99490.19;20901268;28;20049;-71
2021/08/06 01:40:09;;;;;;;3.03;1.20;;;;;;;16.20;86.39;99490.13;20903247;28;20560;-70
2021/08/06 01:50:14;;;;;;;7.18;1.40;;;;;;;16.27;85.63;99490.63;20900716;28;20045;-71
2021/08/06 02:00:16;;;;;;;5.00;1.75;;;;;;;16.15;86.24;99482.44;20900564;28;20049;-70
2021/08/06 02:10:19;;;;;;;3.78;1.70;;;;;;;16.24;85.95;99485.50;20899502;28;20060;-69
2021/08/06 02:20:23;;;;;;;5.40;1.40;;;;;;;16.24;85.96;99496.06;20899340;28;20049;-70
2021/08/06 02:30:26;;;;;;;3.92;1.50;;;;;;;16.39;86.01;99474.97;20906078;28;20119;-71
2021/08/06 02:40:28;;;;;;;3.20;1.73;;;;;;;16.45;86.23;99457.94;20912777;28;20122;-71
2021/08/06 02:50:30;;;;;;;4.80;1.80;;;;;;;16.51;85.48;99452.31;20912519;28;20049;-71
2021/08/06 03:00:32;;;;;;;2.95;1.50;;;;;;;16.44;85.41;99461.53;20910779;28;20045;-71
2021/08/06 03:10:34;;;;;;;3.55;1.40;;;;;;;16.40;85.51;99463.47;20910671;28;20128;-71
2021/08/06 03:20:37;;;;;;;7.85;1.70;;;;;;;16.23;87.42;99478.53;20909271;28;20052;-71
2021/08/06 03:30:38;;;;;;;3.58;1.98;;;;;;;16.17;88.24;99464.72;20908397;28;20060;-70
2021/08/06 03:40:40;;;;;;;6.07;2.78;;;;;;;16.06;90.26;99471.50;20908516;28;20480;-71
2021/08/06 03:50:42;;;;;;;4.55;2.40;;;;;;;16.35;90.54;99467.31;20908424;28;20099;-71
2021/08/06 04:00:43;;;;;;;8.13;2.63;;;;;;;16.38;90.19;99477.69;20906766;28;20080;-70
2021/08/06 04:10:45;;;;;;;5.13;2.75;;;;;;;16.37;89.63;99479.47;20906625;28;20041;-70
2021/08/06 04:20:47;;;;;;;5.15;2.70;;;;;;;16.39;90.24;99467.06;20906233;28;20045;-69
2021/08/06 04:30:49;;;;;;;5.13;2.20;;;;;;;16.34;90.17;99460.31;20904747;28;20103;-71
2021/08/06 04:40:52;;;;;;;5.75;2.47;;;;;;;16.37;89.83;99465.41;20904563;28;20049;-72
2021/08/06 04:50:54;;;;;;;4.22;2.33;;;;;;;16.41;89.81;99459.88;20903370;28;20053;-71
2021/08/06 05:00:56;;;;;;;4.90;2.70;;;;;;;16.50;89.17;99458.53;20902596;28;20111;-71
2021/08/06 05:10:58;;;;;;;4.88;2.53;;;;;;;16.49;89.02;99459.47;20902810;28;20045;-70
2021/08/06 05:20:59;;;;;;;4.30;2.40;;;;;;;16.52;88.83;99461.94;20902933;28;20553;-71
2021/08/06 05:31:01;;;;;;;5.18;2.38;;;;;;;16.58;89.05;99456.34;20901355;28;20118;-71
2021/08/06 05:41:03;;;;;;;5.00;2.40;;;;;;;16.57;89.23;99459.03;20898464;28;20103;-71
2021/08/06 05:51:05;;;;;;;4.63;2.80;;;;;;;17.01;87.69;99467.16;20900824;28;20111;-70
2021/08/06 06:01:06;;;;;;;4.68;2.40;;;;;;;17.30;86.57;99481.38;20899503;28;20556;-72
2021/08/06 06:11:08;;;;;;;5.30;2.70;;;;;;;16.93;88.63;99501.97;20912301;28;20073;-70
2021/08/06 06:21:10;;;;;;;4.82;2.58;;;;;;;16.77;90.41;99511.72;20912873;28;20052;-70
2021/08/06 06:31:12;;;;;;;3.85;2.60;;;;;;;17.03;89.78;99499.66;20911886;28;20048;-70
2021/08/06 06:41:14;;;;;;;3.55;2.22;;;;;;;17.17;89.49;99510.31;20910558;28;20045;-71
2021/08/06 06:51:15;;;;;;;4.75;1.95;;;;;;;17.20;88.77;99527.81;20912321;28;20049;-71
2021/08/06 07:01:17;;;;;;;5.20;2.25;;;;;;;17.65;86.84;99534.88;20893656;28;20111;-71
2021/08/06 07:11:19;;;;;;;3.90;1.80;;;;;;;18.00;86.50;99542.53;20943077;28;20064;-72
2021/08/06 07:21:23;;;;;;;5.35;2.22;;;;;;;18.07;86.00;99549.19;20971104;28;20053;-72
2021/08/06 07:31:25;;;;;;;2.00;1.08;;;;;;;17.98;86.95;99565.63;20910081;28;20116;-72
2021/08/06 07:41:27;;;;;;;3.78;1.80;;;;;;;18.12;84.54;99565.66;20958257;28;20716;-72
2021/08/06 07:51:28;;;;;;;4.32;1.80;;;;;;;18.32;84.46;99572.41;20990707;28;20049;-71
2021/08/06 08:01:30;;;;;;;4.47;1.80;;;;;;;18.88;81.90;99572.53;20989864;28;20044;-72
2021/08/06 08:11:32;;;;;;;6.05;1.67;;;;;;;19.07;79.92;99581.03;20974420;28;20045;-71
2021/08/06 08:21:34;;;;;;;6.05;1.63;;;;;;;19.52;79.86;99584.28;20906837;28;20060;-72
2021/08/06 08:31:36;;;;;;;4.25;1.85;;;;;;;19.89;78.69;99582.75;20903448;28;20056;-72
2021/08/06 08:41:38;;;;;;;2.55;1.33;;;;;;;19.96;77.97;99583.16;20904657;28;20045;-72
2021/08/06 08:51:41;;;;;;;5.40;1.33;;;;;;;19.92;76.86;99576.34;20903843;28;20053;-71
2021/08/06 09:01:43;;;;;;;2.42;1.23;;;;;;;19.86;76.97;99595.38;20916621;28;20577;-71
2021/08/06 09:11:45;;;;;;;3.33;1.45;;;;;;;20.65;72.79;99587.28;20999193;28;20074;-71
2021/08/06 09:21:48;;;;;;;3.33;1.20;;;;;;;20.84;71.60;99592.16;21069917;28;20040;-71
2021/08/06 09:31:52;;;;;;;3.72;1.48;;;;;;;20.84;71.36;99586.84;21068668;28;20048;-69
2021/08/06 09:41:54;;;;;;;4.90;1.25;;;;;;;21.09;66.92;99599.25;21080928;28;20070;-71
2021/08/06 09:51:57;;;;;;;6.93;1.50;;;;;;;20.61;63.53;99585.81;21084917;28;20482;-71
2021/08/06 10:02:26;;;;;;;4.70;1.10;;;;;;;20.25;70.20;99605.09;21084069;28;20047;-71
2021/08/06 10:12:29;;;;;;;5.93;1.38;;;;;;;19.83;71.80;99607.03;21060472;28;20076;-71
2021/08/06 10:22:30;;;;;;;8.00;1.27;;;;;;;21.30;64.89;99582.66;20999064;28;20048;-69
2021/08/06 10:32:33;;;;;;;3.28;1.00;;;;;;;20.84;64.58;99585.97;20997694;28;20102;-71
2021/08/06 10:42:35;;;;;;;3.67;0.82;;;;;;;21.92;62.36;99580.66;20997595;28;20056;-70
2021/08/06 10:52:36;;;;;;;2.58;0.80;;;;;;;21.81;61.25;99574.47;20994856;28;20044;-71
2021/08/06 11:02:41;;;;;;;3.25;0.90;;;;;;;21.78;60.89;99563.06;20993930;28;20055;-71
2021/08/06 11:12:45;;;;;;;4.03;0.80;;;;;;;22.00;57.88;99574.78;21014802;28;20052;-69
2021/08/06 11:22:49;;;;;;;3.67;0.82;;;;;;;21.66;57.73;99561.34;21077421;28;20052;-71
2021/08/06 11:33:02;;;;;;;2.60;0.70;;;;;;;21.59;58.10;99557.41;21075113;28;20055;-70
2021/08/06 11:43:21;;;;;;;4.32;0.90;;;;;;;22.74;55.17;99552.06;21040106;28;20051;-70
2021/08/06 11:53:26;;;;;;;1.95;0.75;;;;;;;22.24;53.09;99562.25;20984131;28;20509;-70
2021/08/06 12:03:28;;;;;;;3.10;0.68;;;;;;;22.14;55.13;99585.25;20988837;28;20106;-70
2021/08/06 12:13:35;;;;;;;2.45;0.80;;;;;;;20.30;67.44;99628.72;21020022;28;20119;-70
2021/08/06 12:23:41;;;;;;;2.78;0.93;;;;;;;20.82;65.96;99604.72;21070517;28;20568;-70
2021/08/06 12:33:47;;;;;;;3.15;0.93;;;;;;;21.38;60.92;99590.97;21069836;28;20418;-70
2021/08/06 12:44:12;;;;;;;3.63;0.80;;;;;;;21.61;58.63;99591.94;21069041;28;20051;-69
2021/08/06 12:54:37;;;;;;;2.40;0.73;;;;;;;22.38;55.91;99576.34;21069928;28;20105;-70
2021/08/06 13:04:39;;;;;;;2.92;0.80;;;;;;;21.99;54.84;99579.25;21067937;28;20044;-71
2021/08/06 13:14:42;;;;;;;1.42;0.60;;;;;;;22.68;53.85;99589.94;21025989;28;20045;-71
2021/08/06 13:24:45;;;;;;;;;;;;;;;23.23;54.26;99580.19;20984516;28;20052;-71
2021/08/06 13:34:47;;;;;;;3.10;0.60;;;;;;;22.64;54.86;99580.47;20983529;28;20362;-70
2021/08/06 13:44:49;;;;;;;3.42;0.70;;;;;;;22.64;54.90;99577.78;20982898;28;20056;-70
2021/08/06 13:54:51;;;;;;;3.22;0.70;;;;;;;23.05;54.02;99563.03;20982072;28;20067;-69
2021/08/06 14:04:52;;;;;;;2.33;0.63;;;;;;;22.41;52.94;99554.75;20981102;28;20041;-69
2021/08/06 14:14:54;;;;;;;3.03;0.80;;;;;;;22.45;51.69;99548.19;21019376;28;20403;-70
2021/08/06 14:24:56;;;;;;;4.15;0.52;;;;;;;22.69;53.02;99553.41;20988072;28;20052;-70
2021/08/06 14:34:58;;;;;;;1.73;0.65;;;;;;;22.65;51.84;99550.13;20995363;28;20044;-70
2021/08/06 14:45:01;;;;;;;4.30;0.73;;;;;;;23.00;52.75;99538.50;20996041;28;20082;-69
2021/08/06 14:55:04;;;;;;;2.85;0.60;;;;;;;23.06;52.30;99556.69;20993689;28;20044;-70
2021/08/06 15:05:07;;;;;;;3.58;0.60;;;;;;;22.84;52.59;99567.34;20992144;28;20409;-70
2021/08/06 15:15:10;;;;;;;2.60;0.60;;;;;;;23.13;52.01;99565.03;21033186;28;20048;-68
2021/08/06 15:25:13;;;;;;;2.33;0.70;;;;;;;22.61;53.33;99571.84;21075860;28;20048;-70
2021/08/06 15:35:15;;;;;;;2.03;0.60;;;;;;;22.71;53.73;99578.19;21073586;28;20168;-69
2021/08/06 15:45:18;;;;;;;2.05;0.50;;;;;;;22.89;52.72;99571.38;21073763;28;20040;-70
2021/08/06 15:55:20;;;;;;;3.63;0.60;;;;;;;22.70;52.22;99576.47;21072400;28;20071;-70
2021/08/06 16:05:23;;;;;;;4.32;0.77;;;;;;;22.61;51.87;99588.69;21072569;28;20093;-69
2021/08/06 16:15:25;;;;;;;3.67;0.90;;;;;;;22.47;53.22;99575.59;21015935;28;20106;-70
2021/08/06 16:25:26;;;;;;;4.45;0.70;;;;;;;22.43;52.47;99566.16;20979008;28;20445;-69
2021/08/06 16:35:28;;;;;;;2.80;0.63;;;;;;;22.59;52.36;99571.97;20987227;28;20037;-70
2021/08/06 16:45:30;;;;;;;2.30;0.60;;;;;;;22.65;52.95;99565.31;20985898;28;20052;-70
2021/08/06 16:55:32;;;;;;;2.45;0.43;;;;;;;22.55;51.58;99557.19;20985428;28;20052;-70
2021/08/06 17:05:34;;;;;;;2.45;0.57;;;;;;;22.60;51.40;99554.16;20983215;28;20037;-71
2021/08/06 17:15:36;;;;;;;4.00;0.68;;;;;;;22.33;52.76;99552.69;21034036;28;20060;-70
2021/08/06 17:25:40;;;;;;;1.87;0.53;;;;;;;22.08;53.46;99556.34;21067088;28;20048;-70
2021/08/06 17:35:42;;;;;;;3.42;0.77;;;;;;;21.91;54.08;99570.97;21067413;28;20093;-70
2021/08/06 17:45:45;;;;;;;1.63;0.52;;;;;;;21.70;53.98;99565.47;21026458;28;20564;-70
2021/08/06 17:55:48;;;;;;;;;;;;;;;21.62;54.69;99570.50;20986486;28;20045;-70
2021/08/06 18:05:50;;;;;;;2.63;0.57;;;;;;;21.40;54.73;99573.06;20997009;28;19966;-71
2021/08/06 18:15:52;;;;;;;3.75;0.60;;;;;;;21.27;55.21;99583.72;20992168;28;20068;-70
2021/08/06 18:25:54;;;;;;;1.20;0.50;;;;;;;21.07;57.22;99582.50;20997399;28;20063;-70
2021/08/06 18:35:57;;;;;;;1.98;0.60;;;;;;;20.97;58.83;99590.31;20996193;28;20041;-70
2021/08/06 18:45:59;;;;;;;2.28;0.77;;;;;;;20.87;59.09;99591.94;20995802;28;20053;-70
2021/08/06 18:56:02;;;;;;;2.95;0.80;;;;;;;20.79;59.17;99588.09;20995508;28;20048;-70
2021/08/06 19:06:04;;;;;;;2.80;1.02;;;;;;;20.55;61.92;99594.19;20994468;28;20048;-70
2021/08/06 19:16:07;;;;;;;2.35;0.73;;;;;;;20.35;62.38;99605.31;21043015;28;20723;-70
2021/08/06 19:26:09;;;;;;;3.42;1.25;;;;;;;20.07;63.21;99624.97;21078179;28;20131;-70
2021/08/06 19:36:11;;;;;;;3.13;1.23;;;;;;;19.79;65.94;99629.47;21075617;28;20097;-70
2021/08/06 19:46:12;;;;;;;2.60;0.98;;;;;;;19.51;67.71;99622.44;21075506;28;20097;-70
2021/08/06 19:56:14;;;;;;;3.88;1.40;;;;;;;19.46;67.78;99635.16;21074080;28;20409;-70
2021/08/06 20:06:16;;;;;;;3.67;1.30;;;;;;;19.40;68.62;99639.06;21072974;28;20040;-71
2021/08/06 20:16:18;;;;;;;1.83;0.88;;;;;;;19.33;68.52;99631.56;21017206;28;20044;-70
2021/08/06 20:26:21;;;;;;;5.72;1.65;;;;;;;19.22;69.13;99632.28;20986838;28;20111;-70
2021/08/06 20:36:23;;;;;;;3.25;1.50;;;;;;;19.11;69.52;99627.63;20984465;28;20048;-70
2021/08/06 20:46:25;;;;;;;4.88;1.35;;;;;;;19.04;69.48;99633.44;20985257;28;20302;-70
2021/08/06 20:56:47;;;;;;;4.45;1.08;;;;;;;18.84;69.51;99634.69;20984652;28;20041;-70
2021/08/06 21:06:50;;;;;;;3.55;1.35;;;;;;;18.83;69.70;99639.13;20982996;28;20575;-70
2021/08/06 21:16:52;;;;;;;2.45;1.00;;;;;;;18.78;69.72;99630.59;21039597;28;20056;-70
2021/08/06 21:26:54;;;;;;;3.55;1.30;;;;;;;18.61;70.04;99615.69;21067065;28;20482;-71
2021/08/06 21:36:57;;;;;;;3.08;1.10;;;;;;;18.44;70.60;99606.13;21078142;28;20047;-70
2021/08/06 21:46:59;;;;;;;2.17;1.00;;;;;;;18.28;71.36;99621.22;21084685;28;20048;-71
2021/08/06 21:57:01;;;;;;;6.45;1.17;;;;;;;18.09;72.19;99616.19;21083565;28;20044;-71
2021/08/06 22:07:03;;;;;;;4.40;1.10;;;;;;;17.93;73.23;99615.38;21038975;28;20048;-70
2021/08/06 22:17:05;;;;;;;5.18;1.10;;;;;;;17.84;73.86;99611.47;20997818;28;20118;-70
2021/08/06 22:27:07;;;;;;;3.65;1.13;;;;;;;17.85;72.70;99612.31;20995352;28;20044;-70
2021/08/06 22:37:09;;;;;;;3.95;1.40;;;;;;;17.74;73.29;99614.75;20994023;28;20417;-71
2021/08/06 22:47:10;;;;;;;2.78;1.08;;;;;;;17.49;74.19;99607.34;20993302;28;20052;-71
2021/08/06 22:57:12;;;;;;;2.97;1.05;;;;;;;17.35;74.63;99618.69;20994807;28;20730;-70
2021/08/06 23:07:14;;;;;;;3.45;1.33;;;;;;;17.22;75.41;99607.06;20993480;28;20052;-70
2021/08/06 23:17:16;;;;;;;3.95;1.23;;;;;;;16.87;77.68;99602.78;20992907;28;20098;-71
2021/08/06 23:27:18;;;;;;;5.57;1.55;;;;;;;16.73;78.41;99607.97;20991872;28;20101;-71
2021/08/06 23:37:20;;;;;;;3.78;1.70;;;;;;;16.54;78.47;99600.13;20990935;28;20044;-70
2021/08/06 23:47:22;;;;;;;4.15;1.98;;;;;;;16.53;78.87;99598.44;20990307;28;20041;-71
2021/08/06 23:57:23;;;;;;;6.65;2.20;;;;;;;16.64;78.74;99596.06;20985151;28;20056;-70
